Norsul Tubarao — 3FJV6 — position and weather

sailwx.info

Track history (hours):
 
Tides and Currents Weather Stations Pressure Air Temp Water Temp Dewpoint Dewpoint Depression Visibility Wind Speed Wind Dir Waves Ship Positions

Norsul Tubarao

Last reported at 2015-Aug-01 23:15 UTC. Time now 2015-Aug-03 23:18 UTC.
Position N 29°29' E 123°48'.

Length 175 m; draft 7.3 m.

Type: Cargo ship. MMSI: 373182000.

Date/timePositionNaut miles runAvg speedWind from/ knotsBaromVisibWave heightAir tempDewpointWater temp
2015-Aug-01 23:15N 29°29' E 123°48'28 9.9
2015-Aug-01 20:26N 29°55' E 123°59'31 9.5
2015-Aug-01 17:08N 30°22' E 124°18'15 8.8
2015-Aug-01 15:23N 30°33' E 124°30'20510.8
2015-Jul-31 20:27N 33°09' E 127°07'1310.8
2015-Jul-31 19:17N 33°18' E 127°17'810.6
2015-Jul-31 18:32N 33°24' E 127°24'2110.6
2015-Jul-31 16:31N 33°42' E 127°38'1211.2
2015-Jul-31 15:25N 33°52' E 127°45'910.9
2015-Jul-31 14:33N 34°01' E 127°50'  
Track history (hours):
 
Tides and Currents Weather Stations Pressure Air Temp Water Temp Dewpoint Dewpoint Depression Visibility Wind Speed Wind Dir Waves Ship Positions

Norsul Tubarao

Last reported at 2015-Aug-01 23:15 UTC. Time now 2015-Aug-03 23:18 UTC.
Position N 29°29' E 123°48'.

Length 175 m; draft 7.3 m.

Type: Cargo ship. MMSI: 373182000.

Date/timePositionNaut miles runAvg speedWind from/ knotsBaromVisibWave heightAir tempDewpointWater temp
2015-Aug-01 23:15N 29°29' E 123°48'28 9.9
2015-Aug-01 20:26N 29°55' E 123°59'31 9.5
2015-Aug-01 17:08N 30°22' E 124°18'15 8.8
2015-Aug-01 15:23N 30°33' E 124°30'20510.8
2015-Jul-31 20:27N 33°09' E 127°07'1310.8
2015-Jul-31 19:17N 33°18' E 127°17'810.6
2015-Jul-31 18:32N 33°24' E 127°24'2110.6
2015-Jul-31 16:31N 33°42' E 127°38'1211.2
2015-Jul-31 15:25N 33°52' E 127°45'910.9
2015-Jul-31 14:33N 34°01' E 127°50'  

Dump ship's entire track history